createdAt,value
2023-05-22T00:03:09.687Z,15.90
2023-05-22T00:08:10.644Z,14.00
2023-05-22T00:13:09.190Z,15.90
2023-05-22T00:18:08.679Z,15.80
2023-05-22T00:23:09.460Z,17.70
2023-05-22T00:28:08.944Z,15.20
2023-05-22T00:33:08.642Z,15.00
2023-05-22T00:38:08.823Z,14.20
2023-05-22T00:43:09.816Z,15.90
2023-05-22T00:48:08.654Z,17.50
2023-05-22T00:53:09.803Z,16.40
2023-05-22T00:58:11.153Z,18.30
2023-05-22T01:03:09.409Z,13.60
2023-05-22T01:05:11.984Z,13.60
2023-05-22T01:08:09.071Z,15.10
2023-05-22T01:13:17.357Z,14.90
2023-05-22T01:18:18.571Z,11.50
2023-05-22T01:19:33.875Z,11.50
2023-05-22T01:23:26.835Z,19.10
2023-05-22T01:28:24.317Z,13.20
2023-05-22T01:33:10.643Z,12.80
2023-05-22T01:38:10.146Z,13.50
2023-05-22T01:43:09.049Z,15.60
2023-05-22T01:48:08.634Z,14.70
2023-05-22T01:53:14.875Z,16.10
2023-05-22T01:58:15.676Z,14.50
2023-05-22T02:03:18.388Z,16.80
2023-05-22T02:08:10.417Z,14.70
2023-05-22T02:13:09.130Z,18.40
2023-05-22T02:18:10.319Z,17.60
2023-05-22T02:23:08.642Z,14.70
2023-05-22T02:28:08.611Z,12.70
2023-05-22T02:30:47.518Z,13.20
2023-05-22T02:33:08.585Z,13.20
2023-05-22T02:38:08.550Z,14.70
2023-05-22T02:43:08.595Z,13.80
2023-05-22T02:48:08.493Z,16.60
2023-05-22T02:53:08.785Z,16.30
2023-05-22T02:58:10.775Z,16.60
2023-05-22T03:03:08.636Z,14.20
2023-05-22T03:08:08.748Z,13.10
2023-05-22T03:13:08.720Z,12.90
2023-05-22T03:18:09.064Z,15.70
2023-05-22T03:23:10.968Z,16.10
2023-05-22T03:28:09.035Z,16.60
2023-05-22T03:33:08.851Z,16.40
2023-05-22T03:38:08.857Z,17.40
2023-05-22T03:43:09.353Z,17.40
2023-05-22T03:48:09.582Z,16.20
2023-05-22T03:53:08.438Z,16.20
2023-05-22T03:58:09.002Z,19.00
2023-05-22T04:03:11.937Z,14.10
2023-05-22T04:08:08.416Z,17.00
2023-05-22T04:12:51.765Z,13.20
2023-05-22T04:13:08.410Z,13.20
2023-05-22T04:18:08.804Z,16.00
2023-05-22T04:23:09.265Z,17.10
2023-05-22T04:28:08.610Z,17.50
2023-05-22T04:30:56.568Z,14.80
2023-05-22T06:19:04.816Z,10.90
2023-05-22T06:20:29.777Z,10.90
2023-05-22T06:25:29.705Z,16.20
2023-05-22T06:30:39.668Z,11.90
2023-05-22T06:35:30.364Z,12.60
2023-05-22T06:40:29.649Z,10.20
2023-05-22T06:45:30.472Z,9.40
2023-05-22T06:50:30.141Z,9.70
2023-05-22T06:55:29.919Z,12.00
2023-05-22T07:00:30.743Z,12.50
2023-05-22T07:03:10.885Z,12.50
2023-05-22T07:05:29.778Z,8.30
2023-05-22T07:10:29.690Z,11.80
2023-05-22T07:15:30.347Z,12.00
2023-05-22T07:20:29.819Z,15.70
2023-05-22T07:25:29.842Z,10.10
2023-05-22T07:30:30.384Z,15.20
2023-05-22T07:35:30.026Z,12.60
2023-05-22T07:40:29.630Z,12.20
2023-05-22T07:45:29.983Z,15.30
2023-05-22T07:50:32.189Z,9.10
2023-05-22T07:55:29.698Z,11.40
2023-05-22T08:00:31.273Z,4.30
2023-05-22T08:05:29.834Z,8.20
2023-05-22T08:10:37.188Z,10.80
2023-05-22T08:15:29.987Z,5.70
2023-05-22T08:20:29.759Z,6.30
2023-05-22T08:25:29.669Z,4.80
2023-05-22T08:30:30.896Z,5.80
2023-05-22T08:35:29.606Z,8.40
2023-05-22T08:40:35.609Z,7.20
2023-05-22T08:45:33.162Z,4.40
2023-05-22T08:50:30.272Z,5.20
2023-05-22T08:54:52.122Z,6.70
2023-05-22T08:55:29.993Z,6.70
2023-05-22T09:00:30.672Z,10.80
2023-05-22T09:00:35.033Z,10.80
2023-05-22T09:05:30.351Z,7.40
2023-05-22T09:10:29.763Z,9.90
2023-05-22T09:15:30.944Z,4.80
2023-05-22T09:20:34.102Z,5.90
2023-05-22T09:25:30.718Z,5.70
2023-05-22T09:30:34.250Z,3.50
2023-05-22T09:35:30.621Z,5.00
2023-05-22T09:40:33.886Z,5.40
2023-05-22T09:45:33.898Z,5.90
2023-05-22T09:50:29.661Z,3.70
2023-05-22T09:55:31.194Z,7.80
2023-05-22T10:00:33.511Z,4.20
2023-05-22T10:05:31.050Z,6.60
2023-05-22T10:10:29.841Z,4.50
2023-05-22T10:15:31.187Z,7.00
2023-05-22T10:20:29.809Z,5.40
2023-05-22T10:25:29.620Z,3.70
2023-05-22T10:30:35.524Z,6.40
2023-05-22T10:35:40.006Z,6.50
2023-05-22T10:40:34.452Z,3.80
2023-05-22T10:45:30.837Z,7.90
2023-05-22T10:50:29.835Z,5.30
2023-05-22T10:55:29.649Z,5.10
2023-05-22T11:00:30.645Z,4.70
2023-05-22T11:05:33.518Z,5.50
2023-05-22T11:10:50.836Z,8.30
2023-05-22T11:15:30.322Z,5.70
2023-05-22T11:20:36.526Z,7.00
2023-05-22T11:25:32.817Z,5.70
2023-05-22T11:30:29.722Z,5.30
2023-05-22T11:35:30.399Z,5.40
2023-05-22T11:40:30.203Z,3.40
2023-05-22T11:45:29.868Z,5.90
2023-05-22T11:50:41.750Z,4.80
2023-05-22T11:55:32.463Z,5.60
2023-05-22T12:00:30.417Z,6.30
2023-05-22T12:05:30.796Z,4.00
2023-05-22T12:10:30.498Z,5.40
2023-05-22T12:15:29.891Z,5.30
2023-05-22T12:20:29.875Z,4.30
2023-05-22T12:25:35.062Z,4.40
2023-05-22T12:30:39.196Z,5.30
2023-05-22T12:35:29.572Z,4.00
2023-05-22T12:40:30.250Z,5.20
2023-05-22T12:45:30.086Z,6.70
2023-05-22T12:50:30.620Z,8.70
2023-05-22T12:55:30.305Z,8.30
2023-05-22T13:00:29.792Z,7.70
2023-05-22T13:05:30.020Z,7.50
2023-05-22T13:10:30.222Z,6.30
2023-05-22T13:15:31.652Z,4.60
2023-05-22T13:20:29.550Z,6.00
2023-05-22T13:25:30.382Z,5.30
2023-05-22T13:30:29.489Z,6.40
2023-05-22T13:35:29.889Z,5.20
2023-05-22T13:40:30.237Z,4.00
2023-05-22T13:45:30.134Z,3.80
2023-05-22T13:50:29.704Z,5.20
2023-05-22T13:55:29.968Z,5.70
2023-05-22T14:00:30.057Z,5.40
2023-05-22T14:05:31.145Z,5.00
2023-05-22T14:10:29.952Z,5.60
2023-05-22T14:15:30.016Z,5.10
2023-05-22T14:20:29.513Z,6.20
2023-05-22T14:25:30.174Z,3.50
2023-05-22T14:30:29.893Z,5.90
2023-05-22T14:35:30.093Z,12.60
2023-05-22T14:40:30.408Z,7.20
2023-05-22T14:45:29.746Z,6.60
2023-05-22T14:50:29.605Z,6.90
2023-05-22T14:55:30.920Z,4.80
2023-05-22T15:00:30.072Z,6.30
2023-05-22T15:05:29.571Z,6.30
2023-05-22T15:10:29.651Z,7.40
2023-05-22T15:15:30.087Z,8.20
2023-05-22T15:20:29.838Z,5.90
2023-05-22T15:25:33.832Z,4.60
2023-05-22T15:30:34.319Z,8.50
2023-05-22T15:35:29.967Z,8.80
2023-05-22T15:40:29.490Z,5.50
2023-05-22T15:45:29.845Z,7.40
2023-05-22T15:50:29.799Z,5.90
2023-05-22T15:55:29.437Z,7.00
2023-05-22T16:00:30.305Z,5.10
2023-05-22T16:05:33.876Z,3.60
2023-05-22T16:10:29.445Z,6.30
2023-05-22T16:14:59.959Z,5.90
2023-05-22T16:15:29.693Z,5.90
2023-05-22T16:20:29.720Z,4.10
2023-05-22T16:21:50.032Z,4.10
2023-05-22T16:25:29.834Z,6.60
2023-05-22T16:30:29.532Z,5.50
2023-05-22T16:35:29.629Z,5.90
2023-05-22T16:40:30.645Z,9.20
2023-05-22T16:45:31.151Z,10.00
2023-05-22T16:50:23.769Z,5.80
2023-05-22T16:50:29.470Z,5.80
2023-05-22T16:55:30.346Z,7.00
2023-05-22T17:00:29.570Z,6.20
2023-05-22T17:05:29.698Z,4.40
2023-05-22T17:10:29.976Z,6.20
2023-05-22T17:15:29.494Z,7.20
2023-05-22T17:16:09.048Z,7.20
2023-05-22T17:20:31.777Z,4.60
2023-05-22T17:25:30.244Z,5.70
2023-05-22T17:30:30.500Z,7.10
2023-05-22T17:35:29.846Z,10.00
2023-05-22T17:40:40.584Z,8.20
2023-05-22T17:45:29.453Z,6.40
2023-05-22T17:50:29.789Z,6.80
2023-05-22T17:55:29.827Z,8.30
2023-05-22T18:00:29.472Z,5.50
2023-05-22T18:05:29.441Z,6.20
2023-05-22T18:10:30.163Z,7.20
2023-05-22T18:15:30.488Z,7.00
2023-05-22T18:20:30.533Z,7.60
2023-05-22T18:25:29.443Z,6.80
2023-05-22T18:30:29.439Z,9.40
2023-05-22T18:35:29.825Z,6.90
2023-05-22T18:40:29.968Z,14.80
2023-05-22T18:45:29.586Z,10.00
2023-05-22T18:50:29.608Z,6.20
2023-05-22T18:55:30.123Z,9.20
2023-05-22T19:00:29.711Z,9.20
2023-05-22T19:05:29.671Z,10.10
2023-05-22T19:10:30.037Z,9.30
2023-05-22T19:15:29.582Z,34.70
2023-05-22T19:20:29.630Z,13.70
2023-05-22T19:25:30.906Z,9.90
2023-05-22T19:30:29.588Z,11.30
2023-05-22T19:35:29.517Z,16.80
2023-05-22T19:40:29.382Z,20.70
2023-05-22T19:45:29.502Z,12.60
2023-05-22T19:50:29.829Z,19.30
2023-05-22T19:55:30.788Z,15.60
2023-05-22T20:00:30.421Z,17.20
2023-05-22T20:05:29.403Z,17.70
2023-05-22T20:10:30.826Z,15.40
2023-05-22T20:15:30.073Z,19.10
2023-05-22T20:20:29.478Z,15.60
2023-05-22T20:25:30.164Z,18.70
2023-05-22T20:30:29.396Z,16.50
2023-05-22T20:35:31.176Z,15.00
2023-05-22T20:40:31.380Z,13.30
2023-05-22T20:45:29.570Z,14.00
2023-05-22T20:50:31.643Z,14.90
2023-05-22T20:55:29.834Z,12.70
2023-05-22T21:00:29.316Z,13.60
2023-05-22T21:05:29.790Z,9.90
2023-05-22T21:10:29.357Z,14.50
2023-05-22T21:15:29.462Z,15.90
2023-05-22T21:20:30.013Z,14.90
2023-05-22T21:25:29.445Z,14.30
2023-05-22T21:30:30.538Z,19.80
2023-05-22T21:35:29.631Z,20.10
2023-05-22T21:40:29.420Z,17.80
2023-05-22T21:45:30.150Z,19.60
2023-05-22T21:50:29.931Z,16.60
2023-05-22T21:55:29.369Z,18.90
2023-05-22T22:00:29.213Z,17.60
2023-05-22T22:05:30.158Z,17.90
2023-05-22T22:10:29.389Z,18.40
2023-05-22T22:15:12.215Z,23.50
2023-05-22T22:15:30.567Z,23.50
2023-05-22T22:20:43.697Z,21.10
2023-05-22T22:25:29.247Z,18.40
2023-05-22T22:30:29.362Z,18.80
2023-05-22T22:31:59.647Z,18.80
2023-05-22T22:32:18.452Z,18.80
2023-05-22T22:35:29.683Z,29.30
2023-05-22T22:40:29.553Z,23.50
2023-05-22T22:45:30.254Z,21.50
2023-05-22T22:50:29.269Z,29.20
2023-05-22T22:55:29.356Z,27.40
2023-05-22T23:00:30.271Z,23.90
2023-05-22T23:05:29.501Z,23.80
2023-05-22T23:10:29.553Z,18.10
2023-05-22T23:15:29.775Z,17.60
2023-05-22T23:20:29.936Z,18.30
2023-05-22T23:25:29.266Z,18.90
2023-05-22T23:30:30.075Z,19.00
2023-05-22T23:35:20.600Z,18.40
2023-05-22T23:35:29.891Z,18.40
2023-05-22T23:40:29.259Z,15.80
2023-05-22T23:45:29.965Z,14.90
2023-05-22T23:50:29.438Z,17.20
2023-05-22T23:55:29.481Z,22.80
